sensor_id;sensor_type;location;lat;lon;timestamp;temperature;humidity
18317;DHT22;9284;52.298;21.164;2022-10-23T03:17:46;12.80;99.90
18317;DHT22;9284;52.298;21.164;2022-10-23T03:20:15;12.80;99.90
18317;DHT22;9284;52.298;21.164;2022-10-23T03:22:44;12.70;99.90
18317;DHT22;9284;52.298;21.164;2022-10-23T03:25:13;12.70;99.90
18317;DHT22;9284;52.298;21.164;2022-10-23T03:27:41;12.70;99.90
18317;DHT22;9284;52.298;21.164;2022-10-23T03:30:14;12.70;99.90
18317;DHT22;9284;52.298;21.164;2022-10-23T03:32:48;12.70;99.90
18317;DHT22;9284;52.298;21.164;2022-10-23T03:35:16;12.70;99.90
18317;DHT22;9284;52.298;21.164;2022-10-23T03:37:44;12.70;99.90
18317;DHT22;9284;52.298;21.164;2022-10-23T03:40:13;12.70;99.90
18317;DHT22;9284;52.298;21.164;2022-10-23T03:42:41;12.70;99.90
18317;DHT22;9284;52.298;21.164;2022-10-23T03:45:13;12.70;99.90
18317;DHT22;9284;52.298;21.164;2022-10-23T03:47:41;12.70;99.90
18317;DHT22;9284;52.298;21.164;2022-10-23T03:50:14;12.70;99.90
18317;DHT22;9284;52.298;21.164;2022-10-23T03:52:43;12.70;99.90
18317;DHT22;9284;52.298;21.164;2022-10-23T03:55:12;12.80;99.90
18317;DHT22;9284;52.298;21.164;2022-10-23T03:57:40;12.70;99.90
18317;DHT22;9284;52.298;21.164;2022-10-23T04:00:09;12.70;99.90
18317;DHT22;9284;52.298;21.164;2022-10-23T04:02:45;12.70;99.90
18317;DHT22;9284;52.298;21.164;2022-10-23T04:05:16;12.70;99.90
18317;DHT22;9284;52.298;21.164;2022-10-23T04:07:53;12.70;99.90
18317;DHT22;9284;52.298;21.164;2022-10-23T04:10:21;12.70;99.90
18317;DHT22;9284;52.298;21.164;2022-10-23T04:12:49;12.70;99.90
18317;DHT22;9284;52.298;21.164;2022-10-23T04:15:18;12.70;99.90
18317;DHT22;9284;52.298;21.164;2022-10-23T04:17:46;12.70;99.90
18317;DHT22;9284;52.298;21.164;2022-10-23T04:20:16;12.70;99.90
18317;DHT22;9284;52.298;21.164;2022-10-23T04:22:44;12.70;99.90
18317;DHT22;9284;52.298;21.164;2022-10-23T04:25:13;12.70;99.90
18317;DHT22;9284;52.298;21.164;2022-10-23T04:27:43;12.70;99.90
18317;DHT22;9284;52.298;21.164;2022-10-23T04:30:12;12.70;99.90
18317;DHT22;9284;52.298;21.164;2022-10-23T04:32:40;12.70;99.90
18317;DHT22;9284;52.298;21.164;2022-10-23T04:35:09;12.70;99.90
18317;DHT22;9284;52.298;21.164;2022-10-23T04:37:38;12.70;99.90
18317;DHT22;9284;52.298;21.164;2022-10-23T04:40:08;12.70;99.90
18317;DHT22;9284;52.298;21.164;2022-10-23T04:42:37;12.70;99.90
18317;DHT22;9284;52.298;21.164;2022-10-23T04:45:07;12.70;99.90
18317;DHT22;9284;52.298;21.164;2022-10-23T04:47:35;12.70;99.90
18317;DHT22;9284;52.298;21.164;2022-10-23T04:50:04;12.70;99.90
18317;DHT22;9284;52.298;21.164;2022-10-23T04:52:57;12.60;99.90
18317;DHT22;9284;52.298;21.164;2022-10-23T04:56:05;12.60;99.90
18317;DHT22;9284;52.298;21.164;2022-10-23T04:58:44;12.60;99.90
18317;DHT22;9284;52.298;21.164;2022-10-23T05:01:12;12.50;99.90
18317;DHT22;9284;52.298;21.164;2022-10-23T05:03:41;12.50;99.90
18317;DHT22;9284;52.298;21.164;2022-10-23T05:06:10;12.50;99.90
18317;DHT22;9284;52.298;21.164;2022-10-23T05:08:54;12.50;99.90
18317;DHT22;9284;52.298;21.164;2022-10-23T05:11:42;12.50;99.90
18317;DHT22;9284;52.298;21.164;2022-10-23T05:14:10;12.50;99.90
18317;DHT22;9284;52.298;21.164;2022-10-23T05:16:43;12.50;99.90
18317;DHT22;9284;52.298;21.164;2022-10-23T05:19:17;12.40;99.90
18317;DHT22;9284;52.298;21.164;2022-10-23T05:21:51;12.50;99.90
18317;DHT22;9284;52.298;21.164;2022-10-23T05:24:30;12.50;99.90
18317;DHT22;9284;52.298;21.164;2022-10-23T05:27:01;12.50;99.90
18317;DHT22;9284;52.298;21.164;2022-10-23T05:29:31;12.50;99.90
18317;DHT22;9284;52.298;21.164;2022-10-23T05:32:02;12.50;99.90
18317;DHT22;9284;52.298;21.164;2022-10-23T05:34:34;12.50;99.90
18317;DHT22;9284;52.298;21.164;2022-10-23T05:37:06;12.50;99.90
18317;DHT22;9284;52.298;21.164;2022-10-23T05:39:39;12.50;99.90
18317;DHT22;9284;52.298;21.164;2022-10-23T05:42:12;12.50;99.90
18317;DHT22;9284;52.298;21.164;2022-10-23T05:44:41;12.50;99.90
18317;DHT22;9284;52.298;21.164;2022-10-23T05:47:28;12.40;99.90
18317;DHT22;9284;52.298;21.164;2022-10-23T05:50:06;12.50;99.90
18317;DHT22;9284;52.298;21.164;2022-10-23T05:52:53;12.50;99.90
18317;DHT22;9284;52.298;21.164;2022-10-23T05:55:32;12.50;99.90
18317;DHT22;9284;52.298;21.164;2022-10-23T05:58:15;12.50;99.90
18317;DHT22;9284;52.298;21.164;2022-10-23T06:01:05;12.50;99.90
18317;DHT22;9284;52.298;21.164;2022-10-23T06:03:59;12.50;99.90
18317;DHT22;9284;52.298;21.164;2022-10-23T06:06:44;12.50;99.90
18317;DHT22;9284;52.298;21.164;2022-10-23T06:09:14;12.50;99.90
18317;DHT22;9284;52.298;21.164;2022-10-23T06:11:46;12.50;99.90
18317;DHT22;9284;52.298;21.164;2022-10-23T06:14:19;12.50;99.90
18317;DHT22;9284;52.298;21.164;2022-10-23T06:16:49;12.50;99.90
18317;DHT22;9284;52.298;21.164;2022-10-23T06:19:18;12.50;99.90
18317;DHT22;9284;52.298;21.164;2022-10-23T06:21:51;12.50;99.90
18317;DHT22;9284;52.298;21.164;2022-10-23T06:24:25;12.50;99.90
18317;DHT22;9284;52.298;21.164;2022-10-23T06:27:00;12.50;99.90
18317;DHT22;9284;52.298;21.164;2022-10-23T06:29:43;12.50;99.90
18317;DHT22;9284;52.298;21.164;2022-10-23T06:32:11;12.50;99.90
18317;DHT22;9284;52.298;21.164;2022-10-23T06:34:44;12.40;99.90
18317;DHT22;9284;52.298;21.164;2022-10-23T06:37:12;12.40;99.90
18317;DHT22;9284;52.298;21.164;2022-10-23T06:39:46;12.50;99.90
18317;DHT22;9284;52.298;21.164;2022-10-23T06:42:19;12.50;99.90
18317;DHT22;9284;52.298;21.164;2022-10-23T06:44:53;12.40;99.90
18317;DHT22;9284;52.298;21.164;2022-10-23T06:47:48;12.50;99.90
18317;DHT22;9284;52.298;21.164;2022-10-23T06:50:36;12.50;99.90
18317;DHT22;9284;52.298;21.164;2022-10-23T06:53:10;12.50;99.90
18317;DHT22;9284;52.298;21.164;2022-10-23T06:55:45;12.50;99.90
18317;DHT22;9284;52.298;21.164;2022-10-23T06:58:20;12.30;99.90
18317;DHT22;9284;52.298;21.164;2022-10-23T07:01:00;12.30;99.90
18317;DHT22;9284;52.298;21.164;2022-10-23T07:03:28;12.30;99.90
18317;DHT22;9284;52.298;21.164;2022-10-23T07:05:59;12.40;99.90
18317;DHT22;9284;52.298;21.164;2022-10-23T07:08:28;12.40;99.90
18317;DHT22;9284;52.298;21.164;2022-10-23T07:10:57;12.40;99.90
18317;DHT22;9284;52.298;21.164;2022-10-23T07:13:31;12.50;99.90
18317;DHT22;9284;52.298;21.164;2022-10-23T07:16:14;12.50;99.90
18317;DHT22;9284;52.298;21.164;2022-10-23T07:18:44;12.50;99.90
18317;DHT22;9284;52.298;21.164;2022-10-23T07:21:35;12.50;99.90
18317;DHT22;9284;52.298;21.164;2022-10-23T07:24:27;12.60;99.90
18317;DHT22;9284;52.298;21.164;2022-10-23T07:26:59;12.60;99.90
18317;DHT22;9284;52.298;21.164;2022-10-23T07:29:30;12.70;99.90
18317;DHT22;9284;52.298;21.164;2022-10-23T07:31:58;12.80;99.90
18317;DHT22;9284;52.298;21.164;2022-10-23T07:34:46;12.90;99.90
18317;DHT22;9284;52.298;21.164;2022-10-23T07:37:28;13.00;99.90
18317;DHT22;9284;52.298;21.164;2022-10-23T07:39:59;12.90;99.90
18317;DHT22;9284;52.298;21.164;2022-10-23T07:42:28;12.90;99.90
18317;DHT22;9284;52.298;21.164;2022-10-23T07:44:58;12.90;99.90
18317;DHT22;9284;52.298;21.164;2022-10-23T07:47:27;12.90;99.90
18317;DHT22;9284;52.298;21.164;2022-10-23T07:49:59;13.00;99.90
18317;DHT22;9284;52.298;21.164;2022-10-23T07:52:27;12.90;99.90
18317;DHT22;9284;52.298;21.164;2022-10-23T07:55:09;13.00;99.90
18317;DHT22;9284;52.298;21.164;2022-10-23T07:58:00;13.00;99.90
18317;DHT22;9284;52.298;21.164;2022-10-23T08:00:39;13.10;99.90
18317;DHT22;9284;52.298;21.164;2022-10-23T08:03:16;13.20;99.90
18317;DHT22;9284;52.298;21.164;2022-10-23T08:05:46;13.20;99.90
18317;DHT22;9284;52.298;21.164;2022-10-23T08:08:17;13.30;99.90
18317;DHT22;9284;52.298;21.164;2022-10-23T08:10:50;13.20;99.90
18317;DHT22;9284;52.298;21.164;2022-10-23T08:13:25;13.20;99.90
18317;DHT22;9284;52.298;21.164;2022-10-23T08:16:02;13.20;99.90
18317;DHT22;9284;52.298;21.164;2022-10-23T08:18:51;13.40;99.90
18317;DHT22;9284;52.298;21.164;2022-10-23T08:21:21;13.70;99.90
18317;DHT22;9284;52.298;21.164;2022-10-23T08:23:53;13.70;99.90
18317;DHT22;9284;52.298;21.164;2022-10-23T08:26:24;13.80;99.90
18317;DHT22;9284;52.298;21.164;2022-10-23T08:28:52;13.90;99.90
18317;DHT22;9284;52.298;21.164;2022-10-23T08:31:23;13.90;99.90
18317;DHT22;9284;52.298;21.164;2022-10-23T08:34:18;13.90;99.90
18317;DHT22;9284;52.298;21.164;2022-10-23T08:36:48;13.90;99.90
18317;DHT22;9284;52.298;21.164;2022-10-23T08:39:17;14.00;99.90
18317;DHT22;9284;52.298;21.164;2022-10-23T08:41:59;14.00;99.90
18317;DHT22;9284;52.298;21.164;2022-10-23T08:44:31;14.00;99.90
18317;DHT22;9284;52.298;21.164;2022-10-23T08:47:05;14.00;99.90
18317;DHT22;9284;52.298;21.164;2022-10-23T08:49:43;14.00;99.90
18317;DHT22;9284;52.298;21.164;2022-10-23T08:52:17;13.90;99.90
18317;DHT22;9284;52.298;21.164;2022-10-23T08:54:55;14.10;99.90
18317;DHT22;9284;52.298;21.164;2022-10-23T08:57:29;14.20;99.90
18317;DHT22;9284;52.298;21.164;2022-10-23T09:00:10;14.40;99.90
18317;DHT22;9284;52.298;21.164;2022-10-23T09:02:42;14.40;99.90
18317;DHT22;9284;52.298;21.164;2022-10-23T09:05:15;14.30;99.90
18317;DHT22;9284;52.298;21.164;2022-10-23T09:08:02;14.30;99.90
18317;DHT22;9284;52.298;21.164;2022-10-23T09:10:44;14.30;99.90
18317;DHT22;9284;52.298;21.164;2022-10-23T09:13:43;14.30;99.90
18317;DHT22;9284;52.298;21.164;2022-10-23T09:16:21;14.30;99.90
18317;DHT22;9284;52.298;21.164;2022-10-23T09:18:53;14.30;99.90
18317;DHT22;9284;52.298;21.164;2022-10-23T09:21:25;14.30;99.90
18317;DHT22;9284;52.298;21.164;2022-10-23T09:23:55;14.20;99.90
18317;DHT22;9284;52.298;21.164;2022-10-23T09:26:23;14.30;99.90
18317;DHT22;9284;52.298;21.164;2022-10-23T09:28:55;14.30;99.90
18317;DHT22;9284;52.298;21.164;2022-10-23T09:31:24;14.30;99.90
18317;DHT22;9284;52.298;21.164;2022-10-23T09:33:55;14.50;99.90
18317;DHT22;9284;52.298;21.164;2022-10-23T09:36:25;14.60;99.90
18317;DHT22;9284;52.298;21.164;2022-10-23T09:38:56;14.60;99.90
18317;DHT22;9284;52.298;21.164;2022-10-23T09:41:28;14.60;99.90
18317;DHT22;9284;52.298;21.164;2022-10-23T09:44:06;14.60;99.90
18317;DHT22;9284;52.298;21.164;2022-10-23T09:46:42;14.60;99.90
18317;DHT22;9284;52.298;21.164;2022-10-23T09:49:20;14.70;99.90
18317;DHT22;9284;52.298;21.164;2022-10-23T09:51:53;14.80;99.90
18317;DHT22;9284;52.298;21.164;2022-10-23T09:54:22;14.80;99.90
18317;DHT22;9284;52.298;21.164;2022-10-23T09:56:52;14.80;99.90
18317;DHT22;9284;52.298;21.164;2022-10-23T09:59:24;14.80;99.90
18317;DHT22;9284;52.298;21.164;2022-10-23T10:01:55;14.90;99.90
18317;DHT22;9284;52.298;21.164;2022-10-23T10:04:46;14.90;99.90
18317;DHT22;9284;52.298;21.164;2022-10-23T10:07:18;14.90;99.90
18317;DHT22;9284;52.298;21.164;2022-10-23T10:09:47;14.90;99.90
18317;DHT22;9284;52.298;21.164;2022-10-23T10:12:40;14.90;99.90
18317;DHT22;9284;52.298;21.164;2022-10-23T10:15:19;14.90;99.90
18317;DHT22;9284;52.298;21.164;2022-10-23T10:17:56;14.90;99.90
18317;DHT22;9284;52.298;21.164;2022-10-23T10:20:42;14.90;99.90
18317;DHT22;9284;52.298;21.164;2022-10-23T10:23:20;14.90;99.90
18317;DHT22;9284;52.298;21.164;2022-10-23T10:25:57;14.90;99.90
18317;DHT22;9284;52.298;21.164;2022-10-23T10:28:37;14.90;99.90
18317;DHT22;9284;52.298;21.164;2022-10-23T10:31:14;15.00;99.90
18317;DHT22;9284;52.298;21.164;2022-10-23T10:33:55;14.90;99.90
18317;DHT22;9284;52.298;21.164;2022-10-23T10:36:39;15.00;99.90
18317;DHT22;9284;52.298;21.164;2022-10-23T10:39:14;14.90;99.90
18317;DHT22;9284;52.298;21.164;2022-10-23T10:41:54;14.90;99.90
18317;DHT22;9284;52.298;21.164;2022-10-23T10:44:56;14.90;99.90
18317;DHT22;9284;52.298;21.164;2022-10-23T10:47:32;14.90;99.90
18317;DHT22;9284;52.298;21.164;2022-10-23T10:50:13;14.90;99.90
18317;DHT22;9284;52.298;21.164;2022-10-23T10:53:08;14.90;99.90
18317;DHT22;9284;52.298;21.164;2022-10-23T10:55:40;14.90;99.90
18317;DHT22;9284;52.298;21.164;2022-10-23T10:58:12;14.90;99.90
18317;DHT22;9284;52.298;21.164;2022-10-23T11:00:42;14.90;99.90
18317;DHT22;9284;52.298;21.164;2022-10-23T11:03:21;14.90;99.90
18317;DHT22;9284;52.298;21.164;2022-10-23T11:05:54;14.90;99.90
18317;DHT22;9284;52.298;21.164;2022-10-23T11:08:34;14.90;99.90
18317;DHT22;9284;52.298;21.164;2022-10-23T11:11:25;15.00;99.90
18317;DHT22;9284;52.298;21.164;2022-10-23T11:13:55;15.00;99.90
18317;DHT22;9284;52.298;21.164;2022-10-23T11:16:27;15.10;99.90
18317;DHT22;9284;52.298;21.164;2022-10-23T11:19:03;15.20;89.00
18317;DHT22;9284;52.298;21.164;2022-10-23T11:21:42;15.30;28.10
18317;DHT22;9284;52.298;21.164;2022-10-23T11:27:38;15.40;1.00
18317;DHT22;9284;52.298;21.164;2022-10-23T11:30:22;15.40;1.00
18317;DHT22;9284;52.298;21.164;2022-10-23T11:33:24;15.40;1.00
18317;DHT22;9284;52.298;21.164;2022-10-23T11:36:11;15.30;1.00
18317;DHT22;9284;52.298;21.164;2022-10-23T11:38:43;15.40;1.00
18317;DHT22;9284;52.298;21.164;2022-10-23T11:41:19;15.40;1.00
18317;DHT22;9284;52.298;21.164;2022-10-23T11:43:55;15.50;1.00
18317;DHT22;9284;52.298;21.164;2022-10-23T11:46:32;15.50;99.90
18317;DHT22;9284;52.298;21.164;2022-10-23T11:49:03;15.40;99.90
18317;DHT22;9284;52.298;21.164;2022-10-23T11:51:33;15.30;99.90
18317;DHT22;9284;52.298;21.164;2022-10-23T11:54:17;15.50;99.90
18317;DHT22;9284;52.298;21.164;2022-10-23T11:57:07;15.60;50.00
18317;DHT22;9284;52.298;21.164;2022-10-23T11:59:49;15.70;96.00
18317;DHT22;9284;52.298;21.164;2022-10-23T12:02:25;15.90;1.00
18317;DHT22;9284;52.298;21.164;2022-10-23T12:04:54;15.90;99.90
18317;DHT22;9284;52.298;21.164;2022-10-23T12:07:26;16.20;1.00
18317;DHT22;9284;52.298;21.164;2022-10-23T12:09:58;16.30;1.00
18317;DHT22;9284;52.298;21.164;2022-10-23T12:12:30;16.40;1.00
18317;DHT22;9284;52.298;21.164;2022-10-23T12:15:19;16.40;1.00
18317;DHT22;9284;52.298;21.164;2022-10-23T12:17:49;16.60;1.00
18317;DHT22;9284;52.298;21.164;2022-10-23T12:20:34;16.60;1.00
18317;DHT22;9284;52.298;21.164;2022-10-23T12:23:35;16.50;99.90
18317;DHT22;9284;52.298;21.164;2022-10-23T12:26:41;16.40;99.90
18317;DHT22;9284;52.298;21.164;2022-10-23T12:29:22;16.30;1.00
18317;DHT22;9284;52.298;21.164;2022-10-23T12:31:59;16.10;99.90
18317;DHT22;9284;52.298;21.164;2022-10-23T12:34:38;15.90;99.90
18317;DHT22;9284;52.298;21.164;2022-10-23T12:37:32;15.90;1.00
18317;DHT22;9284;52.298;21.164;2022-10-23T12:40:07;15.80;99.90
18317;DHT22;9284;52.298;21.164;2022-10-23T12:42:36;15.70;99.90
18317;DHT22;9284;52.298;21.164;2022-10-23T12:45:16;15.70;1.00
18317;DHT22;9284;52.298;21.164;2022-10-23T12:47:46;15.70;1.00
18317;DHT22;9284;52.298;21.164;2022-10-23T12:50:19;15.60;1.00
18317;DHT22;9284;52.298;21.164;2022-10-23T12:52:53;15.50;1.00
18317;DHT22;9284;52.298;21.164;2022-10-23T12:55:23;15.50;99.90
18317;DHT22;9284;52.298;21.164;2022-10-23T12:57:52;15.50;99.90
18317;DHT22;9284;52.298;21.164;2022-10-23T13:00:24;15.50;99.90
18317;DHT22;9284;52.298;21.164;2022-10-23T13:03:00;15.60;99.90
18317;DHT22;9284;52.298;21.164;2022-10-23T13:05:29;15.70;99.90
18317;DHT22;9284;52.298;21.164;2022-10-23T13:07:59;15.70;32.70
18317;DHT22;9284;52.298;21.164;2022-10-23T13:10:41;15.70;1.00
18317;DHT22;9284;52.298;21.164;2022-10-23T13:13:20;15.60;1.00
18317;DHT22;9284;52.298;21.164;2022-10-23T13:15:51;15.50;1.00
18317;DHT22;9284;52.298;21.164;2022-10-23T13:18:20;15.50;99.90
18317;DHT22;9284;52.298;21.164;2022-10-23T13:20:57;15.40;1.00
18317;DHT22;9284;52.298;21.164;2022-10-23T13:23:32;15.40;99.90
18317;DHT22;9284;52.298;21.164;2022-10-23T13:26:03;15.30;99.90
18317;DHT22;9284;52.298;21.164;2022-10-23T13:28:32;15.20;99.90
18317;DHT22;9284;52.298;21.164;2022-10-23T13:31:06;15.20;1.00
18317;DHT22;9284;52.298;21.164;2022-10-23T13:33:51;15.20;1.00
18317;DHT22;9284;52.298;21.164;2022-10-23T13:36:32;15.20;1.00
18317;DHT22;9284;52.298;21.164;2022-10-23T13:39:12;15.20;1.00
18317;DHT22;9284;52.298;21.164;2022-10-23T13:41:42;15.20;1.00
18317;DHT22;9284;52.298;21.164;2022-10-23T13:44:12;15.20;1.00
18317;DHT22;9284;52.298;21.164;2022-10-23T13:46:43;15.20;1.00
18317;DHT22;9284;52.298;21.164;2022-10-23T13:49:11;15.10;1.00
18317;DHT22;9284;52.298;21.164;2022-10-23T13:51:42;15.20;1.00
18317;DHT22;9284;52.298;21.164;2022-10-23T13:54:14;15.10;1.00
18317;DHT22;9284;52.298;21.164;2022-10-23T13:56:44;15.10;99.90
18317;DHT22;9284;52.298;21.164;2022-10-23T13:59:13;15.10;1.00
18317;DHT22;9284;52.298;21.164;2022-10-23T14:01:45;15.10;1.00
18317;DHT22;9284;52.298;21.164;2022-10-23T14:04:15;15.10;1.00
18317;DHT22;9284;52.298;21.164;2022-10-23T14:06:49;15.10;1.00
18317;DHT22;9284;52.298;21.164;2022-10-23T14:09:24;15.10;1.00
18317;DHT22;9284;52.298;21.164;2022-10-23T14:11:53;15.10;1.00
18317;DHT22;9284;52.298;21.164;2022-10-23T14:14:21;15.00;1.00
18317;DHT22;9284;52.298;21.164;2022-10-23T14:16:51;15.00;1.00
18317;DHT22;9284;52.298;21.164;2022-10-23T14:19:20;15.00;1.00
18317;DHT22;9284;52.298;21.164;2022-10-23T14:21:49;15.00;1.00
18317;DHT22;9284;52.298;21.164;2022-10-23T14:24:18;15.00;1.00
18317;DHT22;9284;52.298;21.164;2022-10-23T14:26:46;15.00;1.00
18317;DHT22;9284;52.298;21.164;2022-10-23T14:29:15;14.90;1.00
18317;DHT22;9284;52.298;21.164;2022-10-23T14:31:50;15.00;1.00
18317;DHT22;9284;52.298;21.164;2022-10-23T14:34:19;14.90;1.00
18317;DHT22;9284;52.298;21.164;2022-10-23T14:36:47;14.90;1.00
18317;DHT22;9284;52.298;21.164;2022-10-23T14:39:33;14.80;1.00
18317;DHT22;9284;52.298;21.164;2022-10-23T14:42:02;14.80;1.00
18317;DHT22;9284;52.298;21.164;2022-10-23T14:44:31;14.80;1.00
18317;DHT22;9284;52.298;21.164;2022-10-23T14:47:01;14.80;1.00
18317;DHT22;9284;52.298;21.164;2022-10-23T14:49:31;14.70;1.00
18317;DHT22;9284;52.298;21.164;2022-10-23T14:52:01;14.70;1.00
18317;DHT22;9284;52.298;21.164;2022-10-23T14:54:31;14.70;1.00
18317;DHT22;9284;52.298;21.164;2022-10-23T14:57:01;14.60;1.00
18317;DHT22;9284;52.298;21.164;2022-10-23T14:59:30;14.60;1.00
18317;DHT22;9284;52.298;21.164;2022-10-23T15:02:03;14.70;31.90
18317;DHT22;9284;52.298;21.164;2022-10-23T15:04:32;14.60;29.60
18317;DHT22;9284;52.298;21.164;2022-10-23T15:07:00;14.50;45.20
18317;DHT22;9284;52.298;21.164;2022-10-23T15:09:29;14.50;1.00
18317;DHT22;9284;52.298;21.164;2022-10-23T15:12:01;14.50;1.00
18317;DHT22;9284;52.298;21.164;2022-10-23T15:14:30;14.50;1.00
18317;DHT22;9284;52.298;21.164;2022-10-23T15:16:59;14.40;1.00
18317;DHT22;9284;52.298;21.164;2022-10-23T15:19:29;14.40;1.00
18317;DHT22;9284;52.298;21.164;2022-10-23T15:21:58;14.40;2.90
18317;DHT22;9284;52.298;21.164;2022-10-23T15:24:29;14.40;1.00
18317;DHT22;9284;52.298;21.164;2022-10-23T15:26:59;14.40;1.00
18317;DHT22;9284;52.298;21.164;2022-10-23T15:29:28;14.30;4.80
18317;DHT22;9284;52.298;21.164;2022-10-23T15:31:58;14.40;24.00
18317;DHT22;9284;52.298;21.164;2022-10-23T15:34:31;14.30;47.40
18317;DHT22;9284;52.298;21.164;2022-10-23T15:37:00;14.30;58.20
18317;DHT22;9284;52.298;21.164;2022-10-23T15:39:31;14.30;32.50
18317;DHT22;9284;52.298;21.164;2022-10-23T15:42:03;14.10;62.30
18317;DHT22;9284;52.298;21.164;2022-10-23T15:44:33;14.20;1.50
18317;DHT22;9284;52.298;21.164;2022-10-23T15:47:01;14.20;1.00
18317;DHT22;9284;52.298;21.164;2022-10-23T15:49:32;14.20;1.00
18317;DHT22;9284;52.298;21.164;2022-10-23T15:52:01;14.20;1.00
18317;DHT22;9284;52.298;21.164;2022-10-23T15:54:30;14.20;1.00
18317;DHT22;9284;52.298;21.164;2022-10-23T15:57:00;14.20;1.00
18317;DHT22;9284;52.298;21.164;2022-10-23T15:59:29;14.20;1.00
18317;DHT22;9284;52.298;21.164;2022-10-23T16:01:58;14.20;1.00
18317;DHT22;9284;52.298;21.164;2022-10-23T16:04:27;14.20;1.00
18317;DHT22;9284;52.298;21.164;2022-10-23T16:06:58;14.10;1.00
18317;DHT22;9284;52.298;21.164;2022-10-23T16:09:27;14.10;1.00
18317;DHT22;9284;52.298;21.164;2022-10-23T16:11:56;14.10;1.00
18317;DHT22;9284;52.298;21.164;2022-10-23T16:14:24;14.10;1.00
18317;DHT22;9284;52.298;21.164;2022-10-23T16:16:53;14.10;1.00
18317;DHT22;9284;52.298;21.164;2022-10-23T16:19:21;14.10;1.00
18317;DHT22;9284;52.298;21.164;2022-10-23T16:21:49;14.10;1.00
18317;DHT22;9284;52.298;21.164;2022-10-23T16:24:20;14.10;1.00
18317;DHT22;9284;52.298;21.164;2022-10-23T16:26:48;14.10;1.00
18317;DHT22;9284;52.298;21.164;2022-10-23T16:29:19;14.00;1.00
18317;DHT22;9284;52.298;21.164;2022-10-23T16:31:48;14.00;1.00
18317;DHT22;9284;52.298;21.164;2022-10-23T16:34:16;14.00;1.00
18317;DHT22;9284;52.298;21.164;2022-10-23T16:36:44;14.00;1.00
18317;DHT22;9284;52.298;21.164;2022-10-23T16:39:18;14.00;1.00
18317;DHT22;9284;52.298;21.164;2022-10-23T16:42:05;13.90;1.00
18317;DHT22;9284;52.298;21.164;2022-10-23T16:45:00;13.90;1.00
18317;DHT22;9284;52.298;21.164;2022-10-23T16:47:29;13.90;1.00
18317;DHT22;9284;52.298;21.164;2022-10-23T16:49:58;13.90;1.00
18317;DHT22;9284;52.298;21.164;2022-10-23T16:52:27;13.90;1.00
18317;DHT22;9284;52.298;21.164;2022-10-23T16:54:57;13.80;1.00
18317;DHT22;9284;52.298;21.164;2022-10-23T16:57:25;13.80;1.00
18317;DHT22;9284;52.298;21.164;2022-10-23T16:59:54;13.70;27.60
18317;DHT22;9284;52.298;21.164;2022-10-23T17:02:23;13.70;99.90
18317;DHT22;9284;52.298;21.164;2022-10-23T17:04:51;13.60;99.90
18317;DHT22;9284;52.298;21.164;2022-10-23T17:07:20;13.50;99.90
18317;DHT22;9284;52.298;21.164;2022-10-23T17:09:50;13.40;99.90
18317;DHT22;9284;52.298;21.164;2022-10-23T17:12:20;13.50;99.90
18317;DHT22;9284;52.298;21.164;2022-10-23T17:14:50;13.50;99.90
18317;DHT22;9284;52.298;21.164;2022-10-23T17:17:18;13.40;99.90
18317;DHT22;9284;52.298;21.164;2022-10-23T17:19:47;13.20;99.90
18317;DHT22;9284;52.298;21.164;2022-10-23T17:22:15;13.30;99.90
18317;DHT22;9284;52.298;21.164;2022-10-23T17:24:43;13.30;99.90
18317;DHT22;9284;52.298;21.164;2022-10-23T17:27:17;13.30;99.90
18317;DHT22;9284;52.298;21.164;2022-10-23T17:29:47;13.20;99.90
18317;DHT22;9284;52.298;21.164;2022-10-23T17:32:16;13.20;99.90
18317;DHT22;9284;52.298;21.164;2022-10-23T17:34:44;13.20;99.90
18317;DHT22;9284;52.298;21.164;2022-10-23T17:37:13;13.20;99.90
18317;DHT22;9284;52.298;21.164;2022-10-23T17:39:41;13.10;99.90
18317;DHT22;9284;52.298;21.164;2022-10-23T17:42:09;13.10;99.90
18317;DHT22;9284;52.298;21.164;2022-10-23T17:44:38;13.10;99.90
18317;DHT22;9284;52.298;21.164;2022-10-23T17:47:08;13.10;99.90
18317;DHT22;9284;52.298;21.164;2022-10-23T17:49:36;13.10;99.90
18317;DHT22;9284;52.298;21.164;2022-10-23T17:52:10;13.00;99.90
18317;DHT22;9284;52.298;21.164;2022-10-23T17:54:41;13.00;99.90
18317;DHT22;9284;52.298;21.164;2022-10-23T17:57:09;13.00;99.90
18317;DHT22;9284;52.298;21.164;2022-10-23T17:59:38;13.00;99.90
18317;DHT22;9284;52.298;21.164;2022-10-23T18:02:11;13.00;99.90
18317;DHT22;9284;52.298;21.164;2022-10-23T18:04:40;13.00;99.90
18317;DHT22;9284;52.298;21.164;2022-10-23T18:07:08;13.00;99.90
18317;DHT22;9284;52.298;21.164;2022-10-23T18:09:37;13.00;99.90
18317;DHT22;9284;52.298;21.164;2022-10-23T18:12:09;12.90;99.90
18317;DHT22;9284;52.298;21.164;2022-10-23T18:14:37;12.90;99.90
18317;DHT22;9284;52.298;21.164;2022-10-23T18:17:07;12.80;99.90
18317;DHT22;9284;52.298;21.164;2022-10-23T18:19:36;12.70;99.90
18317;DHT22;9284;52.298;21.164;2022-10-23T18:22:06;12.70;99.90
18317;DHT22;9284;52.298;21.164;2022-10-23T18:24:35;12.80;99.90
18317;DHT22;9284;52.298;21.164;2022-10-23T18:27:04;12.70;99.90
18317;DHT22;9284;52.298;21.164;2022-10-23T18:29:42;12.60;99.90
18317;DHT22;9284;52.298;21.164;2022-10-23T18:32:12;12.60;99.90
18317;DHT22;9284;52.298;21.164;2022-10-23T18:34:41;12.50;99.90
18317;DHT22;9284;52.298;21.164;2022-10-23T18:37:10;12.50;99.90
18317;DHT22;9284;52.298;21.164;2022-10-23T18:39:40;12.40;99.90
18317;DHT22;9284;52.298;21.164;2022-10-23T18:42:09;12.30;99.90
18317;DHT22;9284;52.298;21.164;2022-10-23T18:44:42;12.20;99.90
18317;DHT22;9284;52.298;21.164;2022-10-23T18:47:17;12.10;99.90
18317;DHT22;9284;52.298;21.164;2022-10-23T18:49:52;12.00;99.90
18317;DHT22;9284;52.298;21.164;2022-10-23T18:52:21;11.90;99.90
18317;DHT22;9284;52.298;21.164;2022-10-23T18:54:50;11.90;99.90
18317;DHT22;9284;52.298;21.164;2022-10-23T18:57:19;11.70;99.90
18317;DHT22;9284;52.298;21.164;2022-10-23T18:59:47;11.70;99.90
18317;DHT22;9284;52.298;21.164;2022-10-23T19:02:18;11.50;99.90
18317;DHT22;9284;52.298;21.164;2022-10-23T19:04:51;11.40;99.90
18317;DHT22;9284;52.298;21.164;2022-10-23T19:07:21;11.30;99.90
18317;DHT22;9284;52.298;21.164;2022-10-23T19:09:51;11.30;99.90
18317;DHT22;9284;52.298;21.164;2022-10-23T19:12:21;11.20;99.90
18317;DHT22;9284;52.298;21.164;2022-10-23T19:14:52;11.20;99.90
18317;DHT22;9284;52.298;21.164;2022-10-23T19:17:26;11.20;99.90
18317;DHT22;9284;52.298;21.164;2022-10-23T19:20:00;11.10;99.90
18317;DHT22;9284;52.298;21.164;2022-10-23T19:22:29;11.00;99.90
18317;DHT22;9284;52.298;21.164;2022-10-23T19:25:03;11.00;99.90
18317;DHT22;9284;52.298;21.164;2022-10-23T19:27:38;11.00;99.90
18317;DHT22;9284;52.298;21.164;2022-10-23T19:30:11;10.90;99.90
18317;DHT22;9284;52.298;21.164;2022-10-23T19:32:48;10.60;99.90
18317;DHT22;9284;52.298;21.164;2022-10-23T19:35:19;10.70;99.90